sensor_id;sensor_type;location;lat;lon;timestamp;temperature;humidity
55121;DHT22;41019;48.512;9.036;2023-09-19T00:01:42;17.40;99.90
55121;DHT22;41019;48.512;9.036;2023-09-19T00:04:14;17.40;99.90
55121;DHT22;41019;48.512;9.036;2023-09-19T00:06:40;17.40;99.90
55121;DHT22;41019;48.512;9.036;2023-09-19T00:09:07;17.40;99.90
55121;DHT22;41019;48.512;9.036;2023-09-19T00:11:37;17.40;99.90
55121;DHT22;41019;48.512;9.036;2023-09-19T00:14:04;17.40;99.90
55121;DHT22;41019;48.512;9.036;2023-09-19T00:16:30;17.40;99.90
55121;DHT22;41019;48.512;9.036;2023-09-19T00:18:58;17.40;99.90
55121;DHT22;41019;48.512;9.036;2023-09-19T00:21:25;17.30;99.90
55121;DHT22;41019;48.512;9.036;2023-09-19T00:23:50;17.30;99.90
55121;DHT22;41019;48.512;9.036;2023-09-19T00:26:17;17.30;99.90
55121;DHT22;41019;48.512;9.036;2023-09-19T00:28:47;17.30;99.90
55121;DHT22;41019;48.512;9.036;2023-09-19T00:31:13;17.30;99.90
55121;DHT22;41019;48.512;9.036;2023-09-19T00:33:39;17.30;99.90
55121;DHT22;41019;48.512;9.036;2023-09-19T00:36:05;17.30;99.90
55121;DHT22;41019;48.512;9.036;2023-09-19T00:38:31;17.40;99.90
55121;DHT22;41019;48.512;9.036;2023-09-19T00:40:58;17.40;99.90
55121;DHT22;41019;48.512;9.036;2023-09-19T00:43:25;17.40;99.90
55121;DHT22;41019;48.512;9.036;2023-09-19T00:45:54;17.30;99.90
55121;DHT22;41019;48.512;9.036;2023-09-19T00:48:22;17.30;99.90
55121;DHT22;41019;48.512;9.036;2023-09-19T00:50:48;17.40;99.90
55121;DHT22;41019;48.512;9.036;2023-09-19T00:53:21;17.30;99.90
55121;DHT22;41019;48.512;9.036;2023-09-19T00:55:49;17.30;99.90
55121;DHT22;41019;48.512;9.036;2023-09-19T00:58:19;17.30;99.90
55121;DHT22;41019;48.512;9.036;2023-09-19T01:00:48;17.30;99.90
55121;DHT22;41019;48.512;9.036;2023-09-19T01:03:14;17.30;99.90
55121;DHT22;41019;48.512;9.036;2023-09-19T01:05:40;17.30;99.90
55121;DHT22;41019;48.512;9.036;2023-09-19T01:08:06;17.30;99.80
55121;DHT22;41019;48.512;9.036;2023-09-19T01:10:33;17.30;99.70
55121;DHT22;41019;48.512;9.036;2023-09-19T01:18:55;17.30;99.90
55121;DHT22;41019;48.512;9.036;2023-09-19T01:21:46;17.30;99.90
55121;DHT22;41019;48.512;9.036;2023-09-19T01:29:49;17.30;99.90
55121;DHT22;41019;48.512;9.036;2023-09-19T01:32:19;17.20;99.90
55121;DHT22;41019;48.512;9.036;2023-09-19T01:37:20;17.30;99.90
55121;DHT22;41019;48.512;9.036;2023-09-19T01:40:03;17.30;99.90
55121;DHT22;41019;48.512;9.036;2023-09-19T01:42:45;17.30;99.90
55121;DHT22;41019;48.512;9.036;2023-09-19T01:51:09;17.30;99.90
55121;DHT22;41019;48.512;9.036;2023-09-19T01:54:00;17.30;99.90
55121;DHT22;41019;48.512;9.036;2023-09-19T01:56:38;17.30;99.80
55121;DHT22;41019;48.512;9.036;2023-09-19T01:59:23;17.30;99.90
55121;DHT22;41019;48.512;9.036;2023-09-19T02:01:52;17.30;99.90
55121;DHT22;41019;48.512;9.036;2023-09-19T02:04:18;17.30;99.90
55121;DHT22;41019;48.512;9.036;2023-09-19T02:06:44;17.20;99.90
55121;DHT22;41019;48.512;9.036;2023-09-19T02:09:14;17.20;99.90
55121;DHT22;41019;48.512;9.036;2023-09-19T02:11:40;17.10;99.90
55121;DHT22;41019;48.512;9.036;2023-09-19T02:14:08;17.10;99.90
55121;DHT22;41019;48.512;9.036;2023-09-19T02:16:34;17.10;99.90
55121;DHT22;41019;48.512;9.036;2023-09-19T02:19:00;17.10;99.90
55121;DHT22;41019;48.512;9.036;2023-09-19T02:21:26;17.10;99.90
55121;DHT22;41019;48.512;9.036;2023-09-19T02:23:56;17.10;99.90
55121;DHT22;41019;48.512;9.036;2023-09-19T02:26:22;17.00;99.90
55121;DHT22;41019;48.512;9.036;2023-09-19T02:28:50;17.00;99.90
55121;DHT22;41019;48.512;9.036;2023-09-19T02:31:16;16.90;99.90
55121;DHT22;41019;48.512;9.036;2023-09-19T02:33:42;16.90;99.90
55121;DHT22;41019;48.512;9.036;2023-09-19T02:36:09;16.90;99.90
55121;DHT22;41019;48.512;9.036;2023-09-19T02:38:35;16.90;99.90
55121;DHT22;41019;48.512;9.036;2023-09-19T02:41:03;16.80;99.90
55121;DHT22;41019;48.512;9.036;2023-09-19T02:43:29;16.80;99.90
55121;DHT22;41019;48.512;9.036;2023-09-19T02:45:55;16.70;99.90
55121;DHT22;41019;48.512;9.036;2023-09-19T02:48:22;16.70;99.90
55121;DHT22;41019;48.512;9.036;2023-09-19T02:50:51;16.70;99.90
55121;DHT22;41019;48.512;9.036;2023-09-19T02:53:17;16.60;99.90
55121;DHT22;41019;48.512;9.036;2023-09-19T02:55:44;16.60;99.90
55121;DHT22;41019;48.512;9.036;2023-09-19T02:58:10;16.60;99.90
55121;DHT22;41019;48.512;9.036;2023-09-19T03:00:37;16.60;99.90
55121;DHT22;41019;48.512;9.036;2023-09-19T03:03:04;16.60;99.90
55121;DHT22;41019;48.512;9.036;2023-09-19T03:05:32;16.60;99.90
55121;DHT22;41019;48.512;9.036;2023-09-19T03:07:58;16.60;99.90
55121;DHT22;41019;48.512;9.036;2023-09-19T03:10:27;16.60;99.90
55121;DHT22;41019;48.512;9.036;2023-09-19T03:12:56;16.70;99.90
55121;DHT22;41019;48.512;9.036;2023-09-19T03:15:22;16.70;99.90
55121;DHT22;41019;48.512;9.036;2023-09-19T03:17:50;16.70;99.90
55121;DHT22;41019;48.512;9.036;2023-09-19T03:20:20;16.70;99.90
55121;DHT22;41019;48.512;9.036;2023-09-19T03:22:48;16.70;99.90
55121;DHT22;41019;48.512;9.036;2023-09-19T03:25:15;16.80;99.90
55121;DHT22;41019;48.512;9.036;2023-09-19T03:27:46;16.80;99.90
55121;DHT22;41019;48.512;9.036;2023-09-19T03:30:13;16.80;99.90
55121;DHT22;41019;48.512;9.036;2023-09-19T03:32:48;16.80;99.90
55121;DHT22;41019;48.512;9.036;2023-09-19T03:35:16;16.80;99.90
55121;DHT22;41019;48.512;9.036;2023-09-19T03:37:43;16.80;99.90
55121;DHT22;41019;48.512;9.036;2023-09-19T03:40:10;16.90;99.90
55121;DHT22;41019;48.512;9.036;2023-09-19T03:42:41;16.90;99.90
55121;DHT22;41019;48.512;9.036;2023-09-19T03:45:10;16.90;99.90
55121;DHT22;41019;48.512;9.036;2023-09-19T03:47:50;17.00;99.90
55121;DHT22;41019;48.512;9.036;2023-09-19T03:50:18;17.00;99.90
55121;DHT22;41019;48.512;9.036;2023-09-19T03:52:47;17.00;99.90
55121;DHT22;41019;48.512;9.036;2023-09-19T03:55:13;17.00;99.90
55121;DHT22;41019;48.512;9.036;2023-09-19T03:57:40;17.00;99.90
55121;DHT22;41019;48.512;9.036;2023-09-19T04:00:06;17.00;99.90
55121;DHT22;41019;48.512;9.036;2023-09-19T04:02:39;16.90;99.90
55121;DHT22;41019;48.512;9.036;2023-09-19T04:05:06;16.90;99.90
55121;DHT22;41019;48.512;9.036;2023-09-19T04:07:31;17.00;99.90
55121;DHT22;41019;48.512;9.036;2023-09-19T04:09:58;17.00;99.90
55121;DHT22;41019;48.512;9.036;2023-09-19T04:12:23;16.90;99.90
55121;DHT22;41019;48.512;9.036;2023-09-19T04:14:49;16.90;99.90
55121;DHT22;41019;48.512;9.036;2023-09-19T04:17:16;16.90;99.90
55121;DHT22;41019;48.512;9.036;2023-09-19T04:19:42;16.90;99.90
55121;DHT22;41019;48.512;9.036;2023-09-19T04:22:08;16.90;99.90
55121;DHT22;41019;48.512;9.036;2023-09-19T04:24:35;16.90;99.90
55121;DHT22;41019;48.512;9.036;2023-09-19T04:27:00;16.80;99.90
55121;DHT22;41019;48.512;9.036;2023-09-19T04:29:27;16.70;99.90
55121;DHT22;41019;48.512;9.036;2023-09-19T04:31:55;16.70;99.90
55121;DHT22;41019;48.512;9.036;2023-09-19T04:34:22;16.70;99.90
55121;DHT22;41019;48.512;9.036;2023-09-19T04:36:50;16.70;99.90
55121;DHT22;41019;48.512;9.036;2023-09-19T04:39:15;16.60;99.90
55121;DHT22;41019;48.512;9.036;2023-09-19T04:41:42;16.60;99.90
55121;DHT22;41019;48.512;9.036;2023-09-19T04:44:08;16.60;99.90
55121;DHT22;41019;48.512;9.036;2023-09-19T04:46:35;16.50;99.90
55121;DHT22;41019;48.512;9.036;2023-09-19T04:49:01;16.50;99.90
55121;DHT22;41019;48.512;9.036;2023-09-19T04:51:28;16.50;99.90
55121;DHT22;41019;48.512;9.036;2023-09-19T04:53:58;16.50;99.90
55121;DHT22;41019;48.512;9.036;2023-09-19T04:56:24;16.50;99.90
55121;DHT22;41019;48.512;9.036;2023-09-19T04:58:50;16.50;99.90
55121;DHT22;41019;48.512;9.036;2023-09-19T05:01:16;16.50;99.90
55121;DHT22;41019;48.512;9.036;2023-09-19T05:03:42;16.50;99.90
55121;DHT22;41019;48.512;9.036;2023-09-19T05:06:08;16.50;99.90
55121;DHT22;41019;48.512;9.036;2023-09-19T05:08:34;16.40;99.90
55121;DHT22;41019;48.512;9.036;2023-09-19T05:11:02;16.50;99.90
55121;DHT22;41019;48.512;9.036;2023-09-19T05:13:28;16.50;99.90
55121;DHT22;41019;48.512;9.036;2023-09-19T05:15:54;16.50;99.90
55121;DHT22;41019;48.512;9.036;2023-09-19T05:18:19;16.60;99.90
55121;DHT22;41019;48.512;9.036;2023-09-19T05:20:45;16.60;99.90
55121;DHT22;41019;48.512;9.036;2023-09-19T05:23:11;16.60;99.90
55121;DHT22;41019;48.512;9.036;2023-09-19T05:25:39;16.60;99.90
55121;DHT22;41019;48.512;9.036;2023-09-19T05:28:10;16.70;99.90
55121;DHT22;41019;48.512;9.036;2023-09-19T05:30:37;16.70;99.90
55121;DHT22;41019;48.512;9.036;2023-09-19T05:33:09;16.80;99.90
55121;DHT22;41019;48.512;9.036;2023-09-19T05:35:35;16.80;99.90
55121;DHT22;41019;48.512;9.036;2023-09-19T05:38:05;16.80;99.90
55121;DHT22;41019;48.512;9.036;2023-09-19T05:40:34;16.90;99.90
55121;DHT22;41019;48.512;9.036;2023-09-19T05:43:01;16.90;99.90
55121;DHT22;41019;48.512;9.036;2023-09-19T05:45:29;16.90;99.90
55121;DHT22;41019;48.512;9.036;2023-09-19T05:47:55;17.00;99.90
55121;DHT22;41019;48.512;9.036;2023-09-19T05:50:26;17.10;99.90
55121;DHT22;41019;48.512;9.036;2023-09-19T05:52:53;17.10;99.90
55121;DHT22;41019;48.512;9.036;2023-09-19T05:55:19;17.10;99.90
55121;DHT22;41019;48.512;9.036;2023-09-19T05:57:50;17.20;99.90
55121;DHT22;41019;48.512;9.036;2023-09-19T06:00:21;17.20;99.90
55121;DHT22;41019;48.512;9.036;2023-09-19T06:02:54;17.30;99.90
55121;DHT22;41019;48.512;9.036;2023-09-19T06:05:21;17.30;99.90
55121;DHT22;41019;48.512;9.036;2023-09-19T06:07:48;17.30;99.90
55121;DHT22;41019;48.512;9.036;2023-09-19T06:10:14;17.40;99.90
55121;DHT22;41019;48.512;9.036;2023-09-19T06:12:41;17.40;99.90
55121;DHT22;41019;48.512;9.036;2023-09-19T06:15:10;17.40;99.90
55121;DHT22;41019;48.512;9.036;2023-09-19T06:17:52;17.40;99.90
55121;DHT22;41019;48.512;9.036;2023-09-19T06:20:21;17.40;99.90
55121;DHT22;41019;48.512;9.036;2023-09-19T06:22:48;17.40;99.90
55121;DHT22;41019;48.512;9.036;2023-09-19T06:25:15;17.40;99.90
55121;DHT22;41019;48.512;9.036;2023-09-19T06:27:48;17.30;99.90
55121;DHT22;41019;48.512;9.036;2023-09-19T06:30:18;17.30;99.90
55121;DHT22;41019;48.512;9.036;2023-09-19T06:32:44;17.30;99.90
55121;DHT22;41019;48.512;9.036;2023-09-19T06:35:13;17.40;99.90
55121;DHT22;41019;48.512;9.036;2023-09-19T06:37:40;17.40;99.90
55121;DHT22;41019;48.512;9.036;2023-09-19T06:40:13;17.40;99.90
55121;DHT22;41019;48.512;9.036;2023-09-19T06:42:46;17.40;99.90
55121;DHT22;41019;48.512;9.036;2023-09-19T06:45:14;17.50;99.90
55121;DHT22;41019;48.512;9.036;2023-09-19T06:47:50;17.50;99.90
55121;DHT22;41019;48.512;9.036;2023-09-19T06:50:21;17.60;99.90
55121;DHT22;41019;48.512;9.036;2023-09-19T06:52:52;17.70;99.90
55121;DHT22;41019;48.512;9.036;2023-09-19T06:55:20;17.80;99.90
55121;DHT22;41019;48.512;9.036;2023-09-19T06:57:47;17.90;99.90
55121;DHT22;41019;48.512;9.036;2023-09-19T07:00:14;17.90;99.90
55121;DHT22;41019;48.512;9.036;2023-09-19T07:03:07;18.00;99.90
55121;DHT22;41019;48.512;9.036;2023-09-19T07:05:38;18.00;99.70
55121;DHT22;41019;48.512;9.036;2023-09-19T07:08:06;18.10;99.90
55121;DHT22;41019;48.512;9.036;2023-09-19T07:10:32;18.20;99.80
55121;DHT22;41019;48.512;9.036;2023-09-19T07:13:00;18.30;99.70
55121;DHT22;41019;48.512;9.036;2023-09-19T07:15:29;18.30;99.70
55121;DHT22;41019;48.512;9.036;2023-09-19T07:17:57;18.40;99.70
55121;DHT22;41019;48.512;9.036;2023-09-19T07:20:24;18.60;99.80
55121;DHT22;41019;48.512;9.036;2023-09-19T07:22:54;18.70;99.40
55121;DHT22;41019;48.512;9.036;2023-09-19T07:25:25;18.80;99.30
55121;DHT22;41019;48.512;9.036;2023-09-19T07:27:52;18.90;98.90
55121;DHT22;41019;48.512;9.036;2023-09-19T07:30:22;18.90;98.60
55121;DHT22;41019;48.512;9.036;2023-09-19T07:32:48;19.10;98.20
55121;DHT22;41019;48.512;9.036;2023-09-19T07:35:14;19.20;98.20
55121;DHT22;41019;48.512;9.036;2023-09-19T07:37:40;19.30;98.10
55121;DHT22;41019;48.512;9.036;2023-09-19T07:40:07;19.40;98.10
55121;DHT22;41019;48.512;9.036;2023-09-19T07:42:36;19.50;97.70
55121;DHT22;41019;48.512;9.036;2023-09-19T07:45:04;19.70;97.10
55121;DHT22;41019;48.512;9.036;2023-09-19T07:47:31;19.70;97.20
55121;DHT22;41019;48.512;9.036;2023-09-19T07:49:59;19.70;96.50
55121;DHT22;41019;48.512;9.036;2023-09-19T07:52:28;19.70;96.30
55121;DHT22;41019;48.512;9.036;2023-09-19T07:54:54;19.70;96.30
55121;DHT22;41019;48.512;9.036;2023-09-19T07:57:20;19.60;96.40
55121;DHT22;41019;48.512;9.036;2023-09-19T07:59:46;19.60;96.00
55121;DHT22;41019;48.512;9.036;2023-09-19T08:02:12;19.60;95.90
55121;DHT22;41019;48.512;9.036;2023-09-19T08:04:44;19.50;95.30
55121;DHT22;41019;48.512;9.036;2023-09-19T08:07:14;19.40;95.70
55121;DHT22;41019;48.512;9.036;2023-09-19T08:09:40;19.40;95.30
55121;DHT22;41019;48.512;9.036;2023-09-19T08:12:07;19.50;95.30
55121;DHT22;41019;48.512;9.036;2023-09-19T08:14:36;19.60;94.90
55121;DHT22;41019;48.512;9.036;2023-09-19T08:17:03;19.60;94.60
55121;DHT22;41019;48.512;9.036;2023-09-19T08:19:31;19.70;93.80
55121;DHT22;41019;48.512;9.036;2023-09-19T08:21:58;19.80;93.70
55121;DHT22;41019;48.512;9.036;2023-09-19T08:24:28;19.90;94.10
55121;DHT22;41019;48.512;9.036;2023-09-19T08:26:58;20.00;92.50
55121;DHT22;41019;48.512;9.036;2023-09-19T08:29:25;20.10;93.00
55121;DHT22;41019;48.512;9.036;2023-09-19T08:31:57;20.20;92.70
55121;DHT22;41019;48.512;9.036;2023-09-19T08:34:26;20.40;93.00
55121;DHT22;41019;48.512;9.036;2023-09-19T08:36:53;20.50;92.90
55121;DHT22;41019;48.512;9.036;2023-09-19T08:39:22;20.70;92.10
55121;DHT22;41019;48.512;9.036;2023-09-19T08:41:48;20.70;91.80
55121;DHT22;41019;48.512;9.036;2023-09-19T08:44:14;20.80;91.60
55121;DHT22;41019;48.512;9.036;2023-09-19T08:46:41;21.00;91.30
55121;DHT22;41019;48.512;9.036;2023-09-19T08:49:24;21.00;90.90
55121;DHT22;41019;48.512;9.036;2023-09-19T08:52:03;21.10;91.30
55121;DHT22;41019;48.512;9.036;2023-09-19T08:54:38;21.20;90.80
55121;DHT22;41019;48.512;9.036;2023-09-19T08:57:07;21.30;91.20
55121;DHT22;41019;48.512;9.036;2023-09-19T08:59:39;21.50;90.90
55121;DHT22;41019;48.512;9.036;2023-09-19T09:02:15;21.80;89.10
55121;DHT22;41019;48.512;9.036;2023-09-19T09:04:43;21.90;88.40
55121;DHT22;41019;48.512;9.036;2023-09-19T09:07:11;22.20;89.70
55121;DHT22;41019;48.512;9.036;2023-09-19T09:09:39;22.50;86.60
55121;DHT22;41019;48.512;9.036;2023-09-19T09:12:13;22.50;85.00
55121;DHT22;41019;48.512;9.036;2023-09-19T09:14:46;22.70;84.20
55121;DHT22;41019;48.512;9.036;2023-09-19T09:17:16;22.70;83.80
55121;DHT22;41019;48.512;9.036;2023-09-19T09:19:46;22.60;81.50
55121;DHT22;41019;48.512;9.036;2023-09-19T09:22:13;22.50;81.50
55121;DHT22;41019;48.512;9.036;2023-09-19T09:24:57;22.50;81.40
55121;DHT22;41019;48.512;9.036;2023-09-19T09:27:24;22.70;80.30
55121;DHT22;41019;48.512;9.036;2023-09-19T09:29:52;22.70;79.80
55121;DHT22;41019;48.512;9.036;2023-09-19T09:32:30;22.60;79.50
55121;DHT22;41019;48.512;9.036;2023-09-19T09:35:00;22.70;80.20
55121;DHT22;41019;48.512;9.036;2023-09-19T09:37:28;22.70;79.50
55121;DHT22;41019;48.512;9.036;2023-09-19T09:40:00;22.80;78.10
55121;DHT22;41019;48.512;9.036;2023-09-19T09:42:45;22.90;77.70
55121;DHT22;41019;48.512;9.036;2023-09-19T09:47:50;23.10;75.90
55121;DHT22;41019;48.512;9.036;2023-09-19T09:50:33;23.20;76.00
55121;DHT22;41019;48.512;9.036;2023-09-19T09:53:23;23.40;76.50
55121;DHT22;41019;48.512;9.036;2023-09-19T09:56:07;23.60;75.70
55121;DHT22;41019;48.512;9.036;2023-09-19T09:58:37;23.70;75.40
55121;DHT22;41019;48.512;9.036;2023-09-19T10:01:06;23.80;73.00
55121;DHT22;41019;48.512;9.036;2023-09-19T10:03:38;23.80;73.00
55121;DHT22;41019;48.512;9.036;2023-09-19T10:06:11;23.80;73.10
55121;DHT22;41019;48.512;9.036;2023-09-19T10:09:00;23.90;73.70
55121;DHT22;41019;48.512;9.036;2023-09-19T10:11:42;23.90;72.30
55121;DHT22;41019;48.512;9.036;2023-09-19T10:14:11;24.00;72.50
55121;DHT22;41019;48.512;9.036;2023-09-19T10:16:45;23.90;71.70
55121;DHT22;41019;48.512;9.036;2023-09-19T10:19:17;23.90;72.80
55121;DHT22;41019;48.512;9.036;2023-09-19T10:21:50;23.90;71.20
55121;DHT22;41019;48.512;9.036;2023-09-19T10:24:17;24.00;72.40
55121;DHT22;41019;48.512;9.036;2023-09-19T10:26:45;24.10;73.20
55121;DHT22;41019;48.512;9.036;2023-09-19T10:29:14;24.30;72.30
55121;DHT22;41019;48.512;9.036;2023-09-19T10:31:42;24.30;71.30
55121;DHT22;41019;48.512;9.036;2023-09-19T10:34:17;24.20;70.90
55121;DHT22;41019;48.512;9.036;2023-09-19T10:36:45;24.00;71.40
55121;DHT22;41019;48.512;9.036;2023-09-19T10:39:14;23.80;72.40
55121;DHT22;41019;48.512;9.036;2023-09-19T10:41:50;23.70;72.10
55121;DHT22;41019;48.512;9.036;2023-09-19T10:44:24;23.70;72.30
55121;DHT22;41019;48.512;9.036;2023-09-19T10:46:54;23.60;71.50
55121;DHT22;41019;48.512;9.036;2023-09-19T10:49:21;23.50;72.30
55121;DHT22;41019;48.512;9.036;2023-09-19T10:51:52;23.40;72.40
55121;DHT22;41019;48.512;9.036;2023-09-19T10:54:28;23.30;72.70
55121;DHT22;41019;48.512;9.036;2023-09-19T10:56:59;23.40;72.60
55121;DHT22;41019;48.512;9.036;2023-09-19T10:59:26;23.50;72.60
55121;DHT22;41019;48.512;9.036;2023-09-19T11:02:16;23.70;72.00
55121;DHT22;41019;48.512;9.036;2023-09-19T11:04:43;24.10;71.60
55121;DHT22;41019;48.512;9.036;2023-09-19T11:07:12;24.50;69.70
55121;DHT22;41019;48.512;9.036;2023-09-19T11:09:55;24.70;68.60
55121;DHT22;41019;48.512;9.036;2023-09-19T11:14:57;25.10;66.50
55121;DHT22;41019;48.512;9.036;2023-09-19T11:30:46;25.80;64.20
55121;DHT22;41019;48.512;9.036;2023-09-19T11:33:27;25.90;65.00
55121;DHT22;41019;48.512;9.036;2023-09-19T11:36:08;26.00;64.10
55121;DHT22;41019;48.512;9.036;2023-09-19T11:46:52;26.20;63.10
55121;DHT22;41019;48.512;9.036;2023-09-19T11:49:21;26.20;63.10
55121;DHT22;41019;48.512;9.036;2023-09-19T11:51:52;26.10;63.30
55121;DHT22;41019;48.512;9.036;2023-09-19T11:54:18;26.10;64.60
55121;DHT22;41019;48.512;9.036;2023-09-19T11:56:47;26.10;63.80
55121;DHT22;41019;48.512;9.036;2023-09-19T11:59:20;26.20;63.50
55121;DHT22;41019;48.512;9.036;2023-09-19T12:01:52;26.20;61.90
55121;DHT22;41019;48.512;9.036;2023-09-19T12:07:13;26.40;61.70
55121;DHT22;41019;48.512;9.036;2023-09-19T12:09:43;26.40;61.90
55121;DHT22;41019;48.512;9.036;2023-09-19T12:12:10;26.40;61.40
55121;DHT22;41019;48.512;9.036;2023-09-19T12:14:50;26.40;61.90
55121;DHT22;41019;48.512;9.036;2023-09-19T12:17:17;26.50;61.90
55121;DHT22;41019;48.512;9.036;2023-09-19T12:19:55;26.60;60.00
55121;DHT22;41019;48.512;9.036;2023-09-19T12:22:20;26.50;61.40
55121;DHT22;41019;48.512;9.036;2023-09-19T12:24:47;26.50;60.80
55121;DHT22;41019;48.512;9.036;2023-09-19T12:27:14;26.50;60.60
55121;DHT22;41019;48.512;9.036;2023-09-19T12:29:46;26.30;60.70
55121;DHT22;41019;48.512;9.036;2023-09-19T12:32:15;26.50;59.90
55121;DHT22;41019;48.512;9.036;2023-09-19T12:34:49;26.50;59.00
55121;DHT22;41019;48.512;9.036;2023-09-19T12:37:15;26.50;60.00
55121;DHT22;41019;48.512;9.036;2023-09-19T12:39:48;26.50;60.70
55121;DHT22;41019;48.512;9.036;2023-09-19T12:42:24;26.50;59.80
55121;DHT22;41019;48.512;9.036;2023-09-19T12:44:53;26.60;59.90
55121;DHT22;41019;48.512;9.036;2023-09-19T12:47:24;26.50;59.80
55121;DHT22;41019;48.512;9.036;2023-09-19T12:50:06;26.70;59.60
55121;DHT22;41019;48.512;9.036;2023-09-19T12:52:41;26.70;59.60
55121;DHT22;41019;48.512;9.036;2023-09-19T12:55:07;26.50;59.40
55121;DHT22;41019;48.512;9.036;2023-09-19T12:57:35;26.40;60.30
55121;DHT22;41019;48.512;9.036;2023-09-19T13:00:05;26.00;60.80
55121;DHT22;41019;48.512;9.036;2023-09-19T13:02:37;25.70;61.80
55121;DHT22;41019;48.512;9.036;2023-09-19T13:05:04;25.70;62.50
55121;DHT22;41019;48.512;9.036;2023-09-19T13:07:43;25.80;62.50
55121;DHT22;41019;48.512;9.036;2023-09-19T13:10:09;25.80;63.00
55121;DHT22;41019;48.512;9.036;2023-09-19T13:12:37;25.80;62.00
55121;DHT22;41019;48.512;9.036;2023-09-19T13:15:11;25.70;62.20
55121;DHT22;41019;48.512;9.036;2023-09-19T13:17:44;25.50;61.60
55121;DHT22;41019;48.512;9.036;2023-09-19T13:20:26;25.30;62.20
55121;DHT22;41019;48.512;9.036;2023-09-19T13:22:57;25.30;61.90
55121;DHT22;41019;48.512;9.036;2023-09-19T13:25:34;25.20;63.80
55121;DHT22;41019;48.512;9.036;2023-09-19T13:28:00;25.30;61.90
55121;DHT22;41019;48.512;9.036;2023-09-19T13:30:30;25.40;63.40
55121;DHT22;41019;48.512;9.036;2023-09-19T13:33:11;25.50;63.00
55121;DHT22;41019;48.512;9.036;2023-09-19T13:35:38;25.50;61.80
55121;DHT22;41019;48.512;9.036;2023-09-19T13:38:06;25.50;62.20
55121;DHT22;41019;48.512;9.036;2023-09-19T13:40:38;25.60;62.10
55121;DHT22;41019;48.512;9.036;2023-09-19T13:43:05;25.70;61.90
55121;DHT22;41019;48.512;9.036;2023-09-19T13:45:32;25.60;62.10
55121;DHT22;41019;48.512;9.036;2023-09-19T13:47:58;25.70;62.60
55121;DHT22;41019;48.512;9.036;2023-09-19T13:50:24;25.70;61.80
55121;DHT22;41019;48.512;9.036;2023-09-19T13:52:51;25.70;61.30
55121;DHT22;41019;48.512;9.036;2023-09-19T13:55:17;25.70;61.80
55121;DHT22;41019;48.512;9.036;2023-09-19T13:57:49;25.60;61.90
55121;DHT22;41019;48.512;9.036;2023-09-19T14:00:22;25.70;62.00
55121;DHT22;41019;48.512;9.036;2023-09-19T14:02:48;25.60;62.50
55121;DHT22;41019;48.512;9.036;2023-09-19T14:05:15;25.60;61.90
55121;DHT22;41019;48.512;9.036;2023-09-19T14:07:43;25.60;62.60
55121;DHT22;41019;48.512;9.036;2023-09-19T14:10:10;25.60;62.20
55121;DHT22;41019;48.512;9.036;2023-09-19T14:12:40;25.70;58.80
55121;DHT22;41019;48.512;9.036;2023-09-19T14:15:10;25.70;59.70
55121;DHT22;41019;48.512;9.036;2023-09-19T14:17:37;25.50;59.10
55121;DHT22;41019;48.512;9.036;2023-09-19T14:20:04;25.40;59.20
55121;DHT22;41019;48.512;9.036;2023-09-19T14:22:32;25.40;58.60
55121;DHT22;41019;48.512;9.036;2023-09-19T14:24:59;25.40;59.40
55121;DHT22;41019;48.512;9.036;2023-09-19T14:27:25;25.40;58.60
55121;DHT22;41019;48.512;9.036;2023-09-19T14:29:51;25.30;57.90
55121;DHT22;41019;48.512;9.036;2023-09-19T14:32:17;25.30;59.00
55121;DHT22;41019;48.512;9.036;2023-09-19T14:34:43;25.20;59.50
55121;DHT22;41019;48.512;9.036;2023-09-19T14:37:10;25.10;59.70
55121;DHT22;41019;48.512;9.036;2023-09-19T14:39:37;25.00;60.40
55121;DHT22;41019;48.512;9.036;2023-09-19T14:42:05;24.90;60.50
55121;DHT22;41019;48.512;9.036;2023-09-19T14:44:30;24.90;59.90
55121;DHT22;41019;48.512;9.036;2023-09-19T14:46:56;24.70;60.10
55121;DHT22;41019;48.512;9.036;2023-09-19T14:49:22;24.60;60.90
55121;DHT22;41019;48.512;9.036;2023-09-19T14:51:48;24.60;61.60
55121;DHT22;41019;48.512;9.036;2023-09-19T14:54:15;24.40;61.40
55121;DHT22;41019;48.512;9.036;2023-09-19T14:56:44;24.50;60.10
55121;DHT22;41019;48.512;9.036;2023-09-19T14:59:10;24.40;60.70
55121;DHT22;41019;48.512;9.036;2023-09-19T15:01:41;24.40;60.80
55121;DHT22;41019;48.512;9.036;2023-09-19T15:04:07;24.40;61.10
55121;DHT22;41019;48.512;9.036;2023-09-19T15:06:34;24.30;60.50
55121;DHT22;41019;48.512;9.036;2023-09-19T15:09:00;24.30;60.90
55121;DHT22;41019;48.512;9.036;2023-09-19T15:11:26;24.30;60.10
55121;DHT22;41019;48.512;9.036;2023-09-19T15:13:52;24.20;60.40
55121;DHT22;41019;48.512;9.036;2023-09-19T15:16:19;24.30;61.20
55121;DHT22;41019;48.512;9.036;2023-09-19T15:18:46;24.20;60.70
55121;DHT22;41019;48.512;9.036;2023-09-19T15:21:14;24.20;62.10
55121;DHT22;41019;48.512;9.036;2023-09-19T15:23:42;24.20;61.50
55121;DHT22;41019;48.512;9.036;2023-09-19T15:26:10;24.10;61.70
55121;DHT22;41019;48.512;9.036;2023-09-19T15:28:37;24.10;61.60
55121;DHT22;41019;48.512;9.036;2023-09-19T15:31:09;24.10;60.70
55121;DHT22;41019;48.512;9.036;2023-09-19T15:33:36;24.10;60.90
55121;DHT22;41019;48.512;9.036;2023-09-19T15:38:54;24.00;60.60
55121;DHT22;41019;48.512;9.036;2023-09-19T15:41:21;24.00;61.00
55121;DHT22;41019;48.512;9.036;2023-09-19T15:43:47;23.90;60.80
55121;DHT22;41019;48.512;9.036;2023-09-19T15:46:13;23.80;62.70
55121;DHT22;41019;48.512;9.036;2023-09-19T15:48:42;23.80;61.20
55121;DHT22;41019;48.512;9.036;2023-09-19T15:51:08;23.70;61.80
55121;DHT22;41019;48.512;9.036;2023-09-19T15:53:46;23.60;61.90
55121;DHT22;41019;48.512;9.036;2023-09-19T15:56:13;23.40;63.90
55121;DHT22;41019;48.512;9.036;2023-09-19T15:58:40;23.30;62.20
55121;DHT22;41019;48.512;9.036;2023-09-19T16:01:07;23.20;63.20
55121;DHT22;41019;48.512;9.036;2023-09-19T16:03:38;23.00;62.80
55121;DHT22;41019;48.512;9.036;2023-09-19T16:06:12;23.00;66.10
55121;DHT22;41019;48.512;9.036;2023-09-19T16:08:41;22.80;64.50
55121;DHT22;41019;48.512;9.036;2023-09-19T16:11:09;22.70;64.60
55121;DHT22;41019;48.512;9.036;2023-09-19T16:13:39;22.60;67.00
55121;DHT22;41019;48.512;9.036;2023-09-19T16:16:11;22.50;67.20
55121;DHT22;41019;48.512;9.036;2023-09-19T16:18:51;22.30;69.90
55121;DHT22;41019;48.512;9.036;2023-09-19T16:21:18;22.20;64.30
55121;DHT22;41019;48.512;9.036;2023-09-19T16:23:48;22.10;66.90
55121;DHT22;41019;48.512;9.036;2023-09-19T16:26:20;22.00;68.80
55121;DHT22;41019;48.512;9.036;2023-09-19T16:28:49;21.90;69.50
55121;DHT22;41019;48.512;9.036;2023-09-19T16:31:15;21.80;70.80
55121;DHT22;41019;48.512;9.036;2023-09-19T16:33:43;21.70;68.90
55121;DHT22;41019;48.512;9.036;2023-09-19T16:36:16;21.60;64.60